createdAt,value
2017-12-20T00:00:30.054Z,102834.72
2017-12-20T00:02:57.578Z,102836.13
2017-12-20T00:05:25.100Z,102840.98
2017-12-20T00:07:52.619Z,102844.53
2017-12-20T00:10:20.142Z,102841.80
2017-12-20T00:12:47.693Z,102840.84
2017-12-20T00:15:15.222Z,102841.67
2017-12-20T00:17:42.757Z,102837.38
2017-12-20T00:20:10.291Z,102835.16
2017-12-20T00:22:37.817Z,102834.70
2017-12-20T00:25:05.351Z,102840.91
2017-12-20T00:27:32.882Z,102844.96
2017-12-20T00:30:00.490Z,102837.38
2017-12-20T00:32:28.025Z,102838.64
2017-12-20T00:34:55.562Z,102843.05
2017-12-20T00:37:23.092Z,102836.28
2017-12-20T00:39:50.625Z,102839.38
2017-12-20T00:42:18.153Z,102841.51
2017-12-20T00:44:45.687Z,102846.45
2017-12-20T00:47:13.214Z,102837.58
2017-12-20T00:49:40.760Z,102837.61
2017-12-20T00:52:09.071Z,102849.02
2017-12-20T00:54:36.595Z,102843.69
2017-12-20T00:57:04.122Z,102844.22
2017-12-20T00:59:31.656Z,102838.48
2017-12-20T01:01:59.228Z,102843.55
2017-12-20T01:04:26.767Z,102844.06
2017-12-20T01:06:54.296Z,102836.05
2017-12-20T01:09:21.826Z,102836.13
2017-12-20T01:11:49.377Z,102840.45
2017-12-20T01:14:16.913Z,102840.67
2017-12-20T01:16:44.459Z,102844.16
2017-12-20T01:19:11.983Z,102848.95
2017-12-20T01:21:39.512Z,102838.41
2017-12-20T01:24:07.028Z,102843.11
2017-12-20T01:26:34.546Z,102854.16
2017-12-20T01:29:02.992Z,102847.61
2017-12-20T01:31:30.526Z,102850.25
2017-12-20T01:33:58.058Z,102852.39
2017-12-20T01:36:25.580Z,102851.08
2017-12-20T01:38:53.104Z,102842.24
2017-12-20T01:41:20.630Z,102855.94
2017-12-20T01:43:48.972Z,102853.67
2017-12-20T01:46:16.500Z,102856.31
2017-12-20T01:48:44.032Z,102850.56
2017-12-20T01:51:11.555Z,102852.84
2017-12-20T01:53:39.077Z,102853.21
2017-12-20T01:56:06.600Z,102862.07
2017-12-20T01:58:34.120Z,102860.72
2017-12-20T02:01:01.653Z,102857.64
2017-12-20T02:03:29.174Z,102863.55
2017-12-20T02:05:56.701Z,102863.08
2017-12-20T02:08:24.230Z,102858.89
2017-12-20T02:10:51.752Z,102855.80
2017-12-20T02:13:19.291Z,102856.73
2017-12-20T02:15:46.812Z,102861.10
2017-12-20T02:18:14.337Z,102856.09
2017-12-20T02:20:41.863Z,102852.02
2017-12-20T02:23:09.387Z,102855.98
2017-12-20T02:25:36.935Z,102859.08
2017-12-20T02:28:04.465Z,102871.09
2017-12-20T02:30:31.996Z,102869.64
2017-12-20T02:32:59.524Z,102868.88
2017-12-20T02:35:27.054Z,102874.66
2017-12-20T02:37:54.610Z,102874.22
2017-12-20T02:40:22.139Z,102880.78
2017-12-20T02:42:49.668Z,102879.06
2017-12-20T02:45:17.193Z,102871.09
2017-12-20T02:47:44.727Z,102866.30
2017-12-20T02:50:12.272Z,102866.30
2017-12-20T02:52:39.799Z,102868.90
2017-12-20T02:55:07.327Z,102863.89
2017-12-20T02:57:34.841Z,102866.09
2017-12-20T03:00:02.374Z,102865.92
2017-12-20T03:02:29.893Z,102862.02
2017-12-20T03:04:57.410Z,102859.92
2017-12-20T03:07:24.929Z,102857.89
2017-12-20T03:09:52.445Z,102859.19
2017-12-20T03:12:19.971Z,102851.58
2017-12-20T03:14:47.501Z,102846.28
2017-12-20T03:17:15.026Z,102840.55
2017-12-20T03:19:42.547Z,102838.32
2017-12-20T03:22:10.080Z,102845.33
2017-12-20T03:24:37.634Z,102843.05
2017-12-20T03:27:05.165Z,102841.59
2017-12-20T03:29:32.686Z,102843.72
2017-12-20T03:32:00.213Z,102838.45
2017-12-20T03:34:27.732Z,102839.84
2017-12-20T03:36:55.272Z,102837.63
2017-12-20T03:39:22.794Z,102833.29
2017-12-20T03:41:50.316Z,102837.27
2017-12-20T03:44:17.849Z,102838.98
2017-12-20T03:46:45.371Z,102838.06
2017-12-20T03:49:12.895Z,102840.23
2017-12-20T03:51:40.452Z,102835.53
2017-12-20T03:54:07.983Z,102844.35
2017-12-20T03:56:35.571Z,102840.45
2017-12-20T03:59:03.097Z,102837.28
2017-12-20T04:01:30.621Z,102835.33
2017-12-20T04:03:58.157Z,102836.13
2017-12-20T04:06:25.709Z,102836.19
2017-12-20T04:08:53.241Z,102841.53
2017-12-20T04:11:20.758Z,102848.52
2017-12-20T04:13:48.289Z,102853.46
2017-12-20T04:16:15.817Z,102863.09
2017-12-20T04:18:43.364Z,102849.90
2017-12-20T04:21:10.894Z,102842.42
2017-12-20T04:23:38.427Z,102849.04
2017-12-20T04:26:05.942Z,102847.70
2017-12-20T04:28:33.472Z,102854.70
2017-12-20T04:31:00.989Z,102848.09
2017-12-20T04:33:28.517Z,102849.48
2017-12-20T04:35:56.046Z,102856.09
2017-12-20T04:38:23.584Z,102860.42
2017-12-20T04:40:51.111Z,102861.69
2017-12-20T04:43:18.631Z,102872.75
2017-12-20T04:45:46.159Z,102871.05
2017-12-20T04:48:13.677Z,102869.30
2017-12-20T04:50:41.201Z,102864.14
2017-12-20T04:53:08.738Z,102874.02
2017-12-20T04:55:36.280Z,102867.68
2017-12-20T04:58:03.807Z,102870.31
2017-12-20T05:00:31.367Z,102872.08
2017-12-20T05:02:58.905Z,102860.16
2017-12-20T05:05:26.438Z,102868.59
2017-12-20T05:07:53.979Z,102869.98
2017-12-20T05:10:21.506Z,102865.98
2017-12-20T05:12:49.046Z,102858.41
2017-12-20T05:15:16.583Z,102863.35
2017-12-20T05:17:44.107Z,102865.11
2017-12-20T05:20:11.627Z,102862.97
2017-12-20T05:22:39.150Z,102860.61
2017-12-20T05:25:06.678Z,102859.27
2017-12-20T05:27:34.203Z,102858.41
2017-12-20T05:30:01.728Z,102861.92
2017-12-20T05:32:29.269Z,102862.31
2017-12-20T05:34:56.794Z,102872.91
2017-12-20T05:37:24.321Z,102877.02
2017-12-20T05:39:51.838Z,102878.91
2017-12-20T05:42:19.368Z,102887.73
2017-12-20T05:44:46.890Z,102891.27
2017-12-20T05:47:14.442Z,102890.02
2017-12-20T05:49:41.973Z,102897.02
2017-12-20T05:52:09.490Z,102889.89
2017-12-20T05:54:37.016Z,102887.31
2017-12-20T05:57:04.550Z,102884.73
2017-12-20T05:59:32.075Z,102886.08
2017-12-20T06:01:59.581Z,102891.89
2017-12-20T06:04:27.103Z,102886.48
2017-12-20T06:06:54.636Z,102891.89
2017-12-20T06:09:22.177Z,102892.33
2017-12-20T06:11:49.705Z,102902.08
2017-12-20T06:14:17.250Z,102901.17
2017-12-20T06:16:44.779Z,102898.28
2017-12-20T06:19:12.297Z,102906.59
2017-12-20T06:21:39.841Z,102901.47
2017-12-20T06:24:07.379Z,102901.23
2017-12-20T06:26:34.922Z,102903.41
2017-12-20T06:29:02.454Z,102906.11
2017-12-20T06:31:29.980Z,102904.37
2017-12-20T06:33:57.497Z,102916.30
2017-12-20T06:36:25.028Z,102915.50
2017-12-20T06:38:52.553Z,102922.11
2017-12-20T06:41:20.069Z,102917.71
2017-12-20T06:43:47.584Z,102927.09
2017-12-20T06:46:15.137Z,102926.27
2017-12-20T06:48:42.659Z,102934.61
2017-12-20T06:51:10.174Z,102932.53
2017-12-20T06:53:37.687Z,102930.48
2017-12-20T06:56:05.219Z,102932.13
2017-12-20T06:58:32.745Z,102936.22
2017-12-20T07:01:00.270Z,102932.81
2017-12-20T07:03:27.791Z,102939.47
2017-12-20T07:05:55.312Z,102935.11
2017-12-20T07:08:22.841Z,102935.33
2017-12-20T07:10:50.371Z,102934.06
2017-12-20T07:13:17.892Z,102928.64
2017-12-20T07:15:45.413Z,102930.41
2017-12-20T07:18:12.944Z,102937.27
2017-12-20T07:20:40.463Z,102943.45
2017-12-20T07:23:07.989Z,102936.56
2017-12-20T07:25:35.516Z,102932.20
2017-12-20T07:28:03.038Z,102934.07
2017-12-20T07:30:30.564Z,102938.22
2017-12-20T07:32:58.090Z,102939.98
2017-12-20T07:35:25.619Z,102940.95
2017-12-20T07:37:53.142Z,102943.47
2017-12-20T07:40:20.669Z,102945.31
2017-12-20T07:42:48.185Z,102940.28
2017-12-20T07:45:15.711Z,102948.25
2017-12-20T07:47:43.229Z,102946.09
2017-12-20T07:50:10.863Z,102943.02
2017-12-20T07:52:38.384Z,102946.97
2017-12-20T07:55:05.898Z,102953.80
2017-12-20T07:57:33.445Z,102955.39
2017-12-20T08:00:00.977Z,102957.16
2017-12-20T08:02:28.493Z,102956.08
2017-12-20T08:04:56.017Z,102959.61
2017-12-20T08:07:23.552Z,102960.84
2017-12-20T08:09:51.071Z,102956.34
2017-12-20T08:12:18.599Z,102954.31
2017-12-20T08:14:46.133Z,102967.52
2017-12-20T08:17:13.659Z,102965.47
2017-12-20T08:19:41.180Z,102958.09
2017-12-20T08:22:08.706Z,102964.59
2017-12-20T08:24:36.232Z,102960.98
2017-12-20T08:27:03.763Z,102971.15
2017-12-20T08:29:31.286Z,102964.91
2017-12-20T08:31:58.816Z,102969.08
2017-12-20T08:34:26.339Z,102963.20
2017-12-20T08:36:53.860Z,102970.83
2017-12-20T08:39:21.395Z,102970.52
2017-12-20T08:41:48.922Z,102981.05
2017-12-20T08:44:16.462Z,102984.86
2017-12-20T08:46:44.005Z,102986.94
2017-12-20T08:49:12.248Z,102991.81
2017-12-20T08:51:39.843Z,102987.42
2017-12-20T08:54:07.370Z,102993.94
2017-12-20T08:56:34.897Z,102992.98
2017-12-20T08:59:02.419Z,102998.34
2017-12-20T09:01:29.946Z,102997.86
2017-12-20T09:03:57.470Z,102999.61
2017-12-20T09:06:24.995Z,102998.03
2017-12-20T09:08:52.522Z,102992.75
2017-12-20T09:11:20.053Z,102994.16
2017-12-20T09:13:47.570Z,102995.27
2017-12-20T09:16:15.136Z,102988.83
2017-12-20T09:18:42.661Z,102996.02
2017-12-20T09:21:10.187Z,102995.86
2017-12-20T09:23:37.706Z,102997.71
2017-12-20T09:26:05.281Z,103001.70
2017-12-20T09:28:32.820Z,103000.79
2017-12-20T09:31:00.357Z,103000.73
2017-12-20T09:33:27.882Z,103003.38
2017-12-20T09:35:55.408Z,103000.95
2017-12-20T09:38:23.039Z,103002.27
2017-12-20T09:40:50.563Z,103007.27
2017-12-20T09:43:18.097Z,103010.59
2017-12-20T09:45:45.622Z,103011.75
2017-12-20T09:48:13.143Z,103001.31
2017-12-20T09:50:40.690Z,102997.75
2017-12-20T09:53:08.216Z,102998.19
2017-12-20T09:55:35.752Z,102999.52
2017-12-20T09:58:03.271Z,102999.04
2017-12-20T10:00:30.791Z,102988.11
2017-12-20T10:02:58.325Z,102988.44
2017-12-20T10:05:25.845Z,102989.63
2017-12-20T10:07:53.435Z,102982.98
2017-12-20T10:10:20.984Z,102984.69
2017-12-20T10:12:48.530Z,102992.87
2017-12-20T10:15:16.048Z,102984.23
2017-12-20T10:17:43.574Z,102985.81
2017-12-20T10:20:11.098Z,102974.43
2017-12-20T10:22:38.628Z,102976.23
2017-12-20T10:25:06.159Z,102973.41
2017-12-20T10:27:33.679Z,102976.07
2017-12-20T10:30:01.225Z,102969.58
2017-12-20T10:32:28.744Z,102966.05
2017-12-20T10:34:56.280Z,102969.49
2017-12-20T10:37:23.803Z,102961.59
2017-12-20T10:39:51.323Z,102957.61
2017-12-20T10:42:18.842Z,102949.84
2017-12-20T10:44:46.378Z,102954.39
2017-12-20T10:47:13.907Z,102957.06
2017-12-20T10:49:41.425Z,102960.70
2017-12-20T10:52:08.988Z,102960.95
2017-12-20T10:54:36.514Z,102958.52
2017-12-20T10:57:04.056Z,102957.55
2017-12-20T10:59:31.583Z,102958.19
2017-12-20T11:01:59.098Z,102952.58
2017-12-20T11:04:26.613Z,102951.87
2017-12-20T11:06:54.150Z,102947.69
2017-12-20T11:09:21.674Z,102937.73
2017-12-20T11:11:49.208Z,102937.73
2017-12-20T11:14:16.734Z,102941.08
2017-12-20T11:16:44.252Z,102945.44
2017-12-20T11:19:11.771Z,102947.78
2017-12-20T11:21:39.315Z,102950.88
2017-12-20T11:24:06.827Z,102948.35
2017-12-20T11:26:34.393Z,102944.00
2017-12-20T11:29:01.938Z,102939.01
2017-12-20T11:31:29.467Z,102931.99
2017-12-20T11:33:56.998Z,102928.41
2017-12-20T11:36:24.517Z,102930.67
2017-12-20T11:38:52.029Z,102928.37
2017-12-20T11:41:19.536Z,102933.11
2017-12-20T11:43:47.050Z,102929.28
2017-12-20T11:46:14.574Z,102929.44
2017-12-20T11:48:42.093Z,102936.80
2017-12-20T11:51:09.626Z,102941.41
2017-12-20T11:53:37.167Z,102944.34
2017-12-20T11:56:04.687Z,102949.47
2017-12-20T11:58:32.224Z,102948.91
2017-12-20T12:00:59.785Z,102938.91
2017-12-20T12:03:27.441Z,102932.70
2017-12-20T12:05:54.967Z,102934.07
2017-12-20T12:08:22.494Z,102918.98
2017-12-20T12:10:50.012Z,102920.22
2017-12-20T12:13:17.525Z,102924.77
2017-12-20T12:15:45.045Z,102919.66
2017-12-20T12:18:12.573Z,102924.02
2017-12-20T12:20:40.099Z,102920.97
2017-12-20T12:23:07.618Z,102919.89
2017-12-20T12:25:35.148Z,102919.52
2017-12-20T12:28:03.063Z,102921.05
2017-12-20T12:30:30.581Z,102927.69
2017-12-20T12:32:58.108Z,102924.53
2017-12-20T12:35:25.646Z,102919.33
2017-12-20T12:37:53.204Z,102921.41
2017-12-20T12:40:20.741Z,102917.87
2017-12-20T12:42:48.274Z,102918.13
2017-12-20T12:45:15.792Z,102918.68
2017-12-20T12:47:43.316Z,102916.93
2017-12-20T12:50:10.849Z,102913.96
2017-12-20T12:52:38.369Z,102924.08
2017-12-20T12:55:05.924Z,102920.03
2017-12-20T12:57:33.440Z,102921.78
2017-12-20T13:00:00.954Z,102917.80
2017-12-20T13:02:28.473Z,102925.47
2017-12-20T13:04:55.998Z,102913.95
2017-12-20T13:07:23.562Z,102912.11
2017-12-20T13:09:51.077Z,102906.85
2017-12-20T13:12:18.608Z,102908.19
2017-12-20T13:14:47.225Z,102905.67
2017-12-20T13:17:14.752Z,102900.72
2017-12-20T13:19:42.279Z,102894.98
2017-12-20T13:22:09.799Z,102894.07
2017-12-20T13:24:37.330Z,102894.00
2017-12-20T13:27:05.139Z,102895.42
2017-12-20T13:29:32.694Z,102894.09
2017-12-20T13:32:00.224Z,102897.57
2017-12-20T13:34:27.748Z,102891.75
2017-12-20T13:36:55.278Z,102894.52
2017-12-20T13:39:22.798Z,102890.02
2017-12-20T13:41:50.305Z,102899.77
2017-12-20T13:44:17.829Z,102897.19
2017-12-20T13:46:45.370Z,102892.13
2017-12-20T13:49:12.892Z,102891.47
2017-12-20T13:51:40.406Z,102890.86
2017-12-20T13:54:07.920Z,102889.52
2017-12-20T13:56:35.432Z,102896.98
2017-12-20T13:59:03.138Z,102906.15
2017-12-20T14:01:30.659Z,102903.88
2017-12-20T14:03:58.188Z,102906.61
2017-12-20T14:06:25.713Z,102896.78
2017-12-20T14:08:53.260Z,102903.36
2017-12-20T14:11:20.797Z,102903.42
2017-12-20T14:13:48.325Z,102894.14
2017-12-20T14:16:15.910Z,102892.09
2017-12-20T14:18:43.413Z,102900.64
2017-12-20T14:21:10.935Z,102897.10
2017-12-20T14:23:38.480Z,102897.18
2017-12-20T14:26:06.000Z,102893.17
2017-12-20T14:28:33.511Z,102893.19
2017-12-20T14:31:01.047Z,102895.20
2017-12-20T14:33:28.570Z,102894.83
2017-12-20T14:35:56.089Z,102899.62
2017-12-20T14:38:23.614Z,102898.78
2017-12-20T14:40:51.146Z,102895.34
2017-12-20T14:43:18.668Z,102895.63
2017-12-20T14:45:46.189Z,102898.29
2017-12-20T14:48:13.718Z,102904.03
2017-12-20T14:50:41.242Z,102901.25
2017-12-20T14:53:08.766Z,102897.70
2017-12-20T14:55:36.298Z,102898.88
2017-12-20T14:58:03.831Z,102898.52
2017-12-20T15:00:31.374Z,102891.94
2017-12-20T15:02:58.904Z,102890.61
2017-12-20T15:05:26.441Z,102879.55
2017-12-20T15:07:53.954Z,102880.72
2017-12-20T15:10:21.477Z,102886.05
2017-12-20T15:12:49.016Z,102880.42
2017-12-20T15:15:16.539Z,102882.59
2017-12-20T15:17:44.065Z,102884.34
2017-12-20T15:20:11.590Z,102881.69
2017-12-20T15:22:39.114Z,102879.55
2017-12-20T15:25:06.645Z,102880.00
2017-12-20T15:27:34.166Z,102883.59
2017-12-20T15:30:01.701Z,102886.20
2017-12-20T15:32:29.221Z,102888.02
2017-12-20T15:34:56.749Z,102893.70
2017-12-20T15:37:24.270Z,102892.03
2017-12-20T15:39:51.794Z,102894.59
2017-12-20T15:42:19.334Z,102893.84
2017-12-20T15:44:46.879Z,102894.80
2017-12-20T15:47:14.406Z,102886.78
2017-12-20T15:49:41.939Z,102887.65
2017-12-20T15:52:09.459Z,102887.16
2017-12-20T15:54:36.987Z,102886.70
2017-12-20T15:57:04.511Z,102892.47
2017-12-20T15:59:32.029Z,102886.70
2017-12-20T16:01:59.636Z,102892.07
2017-12-20T16:04:27.162Z,102884.98
2017-12-20T16:06:54.682Z,102884.63
2017-12-20T16:09:22.207Z,102888.55
2017-12-20T16:11:49.734Z,102889.07
2017-12-20T16:14:17.250Z,102885.96
2017-12-20T16:16:44.769Z,102884.18
2017-12-20T16:19:12.297Z,102875.78
2017-12-20T16:21:39.832Z,102870.02
2017-12-20T16:24:07.354Z,102871.36
2017-12-20T16:26:34.883Z,102866.98
2017-12-20T16:29:02.410Z,102871.47
2017-12-20T16:31:29.930Z,102870.59
2017-12-20T16:33:57.454Z,102861.30
2017-12-20T16:36:24.985Z,102857.32
2017-12-20T16:38:52.504Z,102859.53
2017-12-20T16:41:20.038Z,102853.31
2017-12-20T16:43:47.563Z,102849.83
2017-12-20T16:46:15.110Z,102850.28
2017-12-20T16:48:42.658Z,102841.94
2017-12-20T16:51:10.196Z,102850.36
2017-12-20T16:53:42.698Z,102848.13
2017-12-20T16:56:10.219Z,102846.80
2017-12-20T16:58:37.746Z,102839.73
2017-12-20T17:01:05.270Z,102841.54
2017-12-20T17:03:32.790Z,102835.21
2017-12-20T17:06:00.310Z,102827.25
2017-12-20T17:08:27.832Z,102829.97
2017-12-20T17:10:55.366Z,102836.61
2017-12-20T17:13:22.895Z,102837.89
2017-12-20T17:15:50.425Z,102841.03
2017-12-20T17:18:17.971Z,102848.19
2017-12-20T17:20:45.547Z,102857.00
2017-12-20T17:23:13.080Z,102843.71
2017-12-20T17:25:40.620Z,102847.70
2017-12-20T17:28:08.149Z,102856.18
2017-12-20T17:30:35.670Z,102855.84
2017-12-20T17:33:03.194Z,102859.70
2017-12-20T17:35:30.712Z,102856.18
2017-12-20T17:37:58.444Z,102863.75
2017-12-20T17:40:25.971Z,102859.39
2017-12-20T17:42:53.488Z,102857.17
2017-12-20T17:45:21.018Z,102853.64
2017-12-20T17:47:48.534Z,102850.55
2017-12-20T17:50:16.064Z,102847.00
2017-12-20T17:52:43.616Z,102843.00
2017-12-20T17:55:11.165Z,102851.91
2017-12-20T17:57:38.683Z,102846.56
2017-12-20T18:00:06.200Z,102852.30
2017-12-20T18:02:33.729Z,102851.05
2017-12-20T18:05:01.253Z,102850.16
2017-12-20T18:07:28.785Z,102848.33
2017-12-20T18:09:56.350Z,102850.55
2017-12-20T18:12:27.046Z,102844.39
2017-12-20T18:14:54.577Z,102844.02
2017-12-20T18:17:22.130Z,102843.56
2017-12-20T18:19:49.651Z,102835.98
2017-12-20T18:22:17.181Z,102833.81
2017-12-20T18:24:44.707Z,102846.72
2017-12-20T18:27:12.246Z,102845.84
2017-12-20T18:29:39.767Z,102851.17
2017-12-20T18:32:07.295Z,102852.55
2017-12-20T18:34:34.846Z,102851.71
2017-12-20T18:37:02.391Z,102855.59
2017-12-20T18:39:29.934Z,102852.55
2017-12-20T18:41:57.462Z,102855.14
2017-12-20T18:44:24.984Z,102859.58
2017-12-20T18:46:52.504Z,102864.52
2017-12-20T18:49:20.038Z,102870.20
2017-12-20T18:51:47.558Z,102862.30
2017-12-20T18:54:15.092Z,102858.23
2017-12-20T18:56:42.620Z,102861.84
2017-12-20T18:59:10.138Z,102849.01
2017-12-20T19:01:37.714Z,102851.72
2017-12-20T19:04:05.326Z,102852.16
2017-12-20T19:06:32.848Z,102851.27
2017-12-20T19:09:00.376Z,102853.05
2017-12-20T19:11:28.104Z,102852.56
2017-12-20T19:13:55.630Z,102845.33
2017-12-20T19:16:23.154Z,102844.53
2017-12-20T19:18:50.665Z,102845.90
2017-12-20T19:21:18.210Z,102847.72
2017-12-20T19:23:45.735Z,102846.02
2017-12-20T19:26:13.260Z,102842.36
2017-12-20T19:28:40.781Z,102835.31
2017-12-20T19:31:08.306Z,102830.06
2017-12-20T19:33:35.836Z,102827.01
2017-12-20T19:36:03.367Z,102823.91
2017-12-20T19:48:15.906Z,102809.52
2017-12-20T19:50:43.428Z,102812.22
2017-12-20T19:53:10.951Z,102813.11
2017-12-20T19:55:38.482Z,102806.97
2017-12-20T19:58:06.001Z,102809.19
2017-12-20T20:00:33.535Z,102813.67
2017-12-20T20:03:01.052Z,102813.61
2017-12-20T20:05:28.579Z,102811.39
2017-12-20T20:07:56.112Z,102810.11
2017-12-20T20:10:23.635Z,102814.95
2017-12-20T20:12:51.161Z,102818.09
2017-12-20T20:15:18.824Z,102813.22
2017-12-20T20:17:46.354Z,102808.73
2017-12-20T20:20:13.974Z,102803.42
2017-12-20T20:22:41.673Z,102799.94
2017-12-20T20:25:09.210Z,102794.62
2017-12-20T20:27:36.813Z,102797.32
2017-12-20T20:30:04.346Z,102788.02
2017-12-20T20:32:31.878Z,102788.02
2017-12-20T20:34:59.430Z,102788.47
2017-12-20T20:37:26.990Z,102800.38
2017-12-20T20:39:54.513Z,102792.78
2017-12-20T20:42:22.042Z,102791.89
2017-12-20T20:44:49.574Z,102786.18
2017-12-20T20:47:17.107Z,102789.30
2017-12-20T20:49:44.634Z,102779.93
2017-12-20T20:52:12.180Z,102773.29
2017-12-20T20:54:39.752Z,102771.55
2017-12-20T20:57:07.290Z,102770.68
2017-12-20T20:59:34.858Z,102767.13
2017-12-20T21:02:02.390Z,102764.03
2017-12-20T21:04:29.914Z,102757.44
2017-12-20T21:06:57.437Z,102760.58
2017-12-20T21:09:25.122Z,102762.31
2017-12-20T21:11:58.465Z,102753.84
2017-12-20T21:14:25.995Z,102755.22
2017-12-20T21:16:53.542Z,102759.26
2017-12-20T21:19:21.102Z,102760.58
2017-12-20T21:21:49.433Z,102765.41
2017-12-20T21:24:16.944Z,102763.59
2017-12-20T21:26:44.471Z,102771.17
2017-12-20T21:29:12.057Z,102766.69
2017-12-20T21:31:39.618Z,102767.08
2017-12-20T21:34:07.198Z,102763.14
2017-12-20T21:36:34.729Z,102759.25
2017-12-20T21:39:02.248Z,102762.36
2017-12-20T21:41:29.770Z,102757.48
2017-12-20T21:43:57.290Z,102761.92
2017-12-20T21:46:24.820Z,102756.16
2017-12-20T21:48:52.363Z,102761.47
2017-12-20T21:51:19.922Z,102762.36
2017-12-20T21:53:47.503Z,102761.52
2017-12-20T21:56:15.030Z,102765.06
2017-12-20T21:58:42.548Z,102761.03
2017-12-20T22:01:10.078Z,102750.88
2017-12-20T22:03:37.607Z,102749.59
2017-12-20T22:06:05.132Z,102749.06
2017-12-20T22:08:32.682Z,102745.08
2017-12-20T22:11:00.209Z,102751.22
2017-12-20T22:13:28.014Z,102752.16
2017-12-20T22:15:55.539Z,102748.17
2017-12-20T22:18:23.105Z,102743.73
2017-12-20T22:20:50.663Z,102745.16
2017-12-20T22:23:18.191Z,102741.52
2017-12-20T22:25:45.731Z,102739.36
2017-12-20T22:28:13.258Z,102737.54
2017-12-20T22:30:40.777Z,102740.69
2017-12-20T22:33:08.300Z,102729.95
2017-12-20T22:35:35.832Z,102729.16
2017-12-20T22:38:03.365Z,102722.56
2017-12-20T22:40:30.890Z,102718.92
2017-12-20T22:42:58.422Z,102718.08
2017-12-20T22:45:25.948Z,102729.64
2017-12-20T22:47:53.478Z,102731.87
2017-12-20T22:50:21.005Z,102740.34
2017-12-20T22:52:48.526Z,102740.34
2017-12-20T22:55:16.048Z,102731.91
2017-12-20T22:57:43.564Z,102717.24
2017-12-20T23:00:11.106Z,102714.58
2017-12-20T23:02:38.633Z,102710.55
2017-12-20T23:05:06.172Z,102715.02
2017-12-20T23:07:33.691Z,102713.25
2017-12-20T23:10:01.215Z,102708.86
2017-12-20T23:12:28.736Z,102711.92
2017-12-20T23:14:56.255Z,102705.76
2017-12-20T23:17:24.503Z,102703.58
2017-12-20T23:19:52.029Z,102695.12
2017-12-20T23:22:19.548Z,102691.58
2017-12-20T23:24:47.066Z,102691.62
2017-12-20T23:27:14.589Z,102683.20
2017-12-20T23:29:42.120Z,102675.70
2017-12-20T23:32:09.657Z,102679.20
2017-12-20T23:34:37.197Z,102681.06
2017-12-20T23:37:04.724Z,102680.98
2017-12-20T23:39:32.264Z,102679.73
2017-12-20T23:41:59.852Z,102674.41
2017-12-20T23:44:27.378Z,102665.98
2017-12-20T23:46:54.935Z,102667.31
2017-12-20T23:49:22.464Z,102681.50
2017-12-20T23:51:50.004Z,102680.17
2017-12-20T23:54:17.526Z,102680.66
2017-12-20T23:56:45.057Z,102685.09
2017-12-20T23:59:12.598Z,102674.05
